Flight Track Log - Related Links

Times and Time Zones

All times are in EDT time to prevent confusion due to time zone crossing. See the 9Y-BGI flight status page for this flight to view local times or setup timezone preferences in your user account.

Time Position Orientation Groundspeed Altitude Reporting Facility
EDT Latitude Longitude Course Direction KTS MPH feet Rate Location/Type
Sun 05:11:00 AM 6.7462 -56.7109 311° West  Level Estimated
Sun 05:12:00 AM 6.8221 -56.8007 310° West  Level Estimated
Sun 05:13:00 AM 6.8980 -56.8906 310° West  Level Estimated
Sun 05:14:00 AM 6.9739 -56.9805 310° West  Level Estimated
Sun 05:15:00 AM 7.0498 -57.0704 310° West  Level Estimated
Sun 05:16:00 AM 7.1257 -57.1603 310° West  Level Estimated
Sun 05:17:00 AM 7.2016 -57.2503 310° West  Level Estimated
Sun 05:18:00 AM 7.2774 -57.3403 310° West  Level Estimated
Sun 05:19:00 AM 7.3532 -57.4304 310° West  Level Estimated
Sun 05:20:00 AM 7.4290 -57.5204 310° West  Level Estimated
Sun 05:21:00 AM 7.5048 -57.6105 310° West  Level Estimated
Sun 05:22:00 AM 7.5806 -57.7007 310° West  Level Estimated
Sun 05:23:00 AM 7.6563 -57.7908 310° West  Level Estimated
Sun 05:24:00 AM 7.7320 -57.8810 310° West  Level Estimated
Sun 05:25:00 AM 7.8078 -57.9712 310° West  Level Estimated
Sun 05:26:00 AM 7.8834 -58.0615 310° West  Level Estimated
Sun 05:27:00 AM 7.9591 -58.1518 310° West  Level Estimated
Sun 05:28:00 AM 8.0348 -58.2421 310° West  Level Estimated
Sun 05:29:00 AM 8.1104 -58.3325 310° West  Level Estimated
Sun 05:30:00 AM 8.1860 -58.4229 310° West  Level Estimated
Sun 05:31:00 AM 8.2616 -58.5133 310° West  Level Estimated
Sun 05:32:00 AM 8.3372 -58.6038 310° West  Level Estimated
Sun 05:33:00 AM 8.4127 -58.6943 310° West  Level Estimated
Sun 05:34:00 AM 8.4882 -58.7848 310° West  Level Estimated
Sun 05:35:00 AM 8.5638 -58.8754 310° West  Level Estimated
Sun 05:36:00 AM 8.6392 -58.9660 310° West  Level Estimated
Sun 05:37:00 AM 8.7147 -59.0566 310° West  Level Estimated
Sun 05:38:00 AM 8.7901 -59.1473 310° West  Level Estimated
Sun 05:39:00 AM 8.8656 -59.2380 310° West  Level Estimated
Sun 05:40:00 AM 8.9410 -59.3288 310° West  Level Estimated
Sun 05:41:00 AM 9.0163 -59.4196 310° West  Level Estimated
Sun 05:42:00 AM 9.0917 -59.5104 310° West  Level Estimated
Sun 05:43:00 AM 9.1670 -59.6012 310° West  Level Estimated
Sun 05:44:00 AM 9.2423 -59.6922 310° West  Level Estimated
Sun 05:45:00 AM 9.3176 -59.7831 310° West  Level Estimated
Sun 05:46:00 AM 9.3929 -59.8741 310° West  Level Estimated
Sun 05:47:00 AM 9.4682 -59.9651 310° West  Level Estimated
Sun 05:48:00 AM 9.5434 -60.0561 310° West  Level Estimated
Sun 05:49:00 AM 9.6186 -60.1473 310° West  Level Estimated
Sun 05:50:00 AM 9.6937 -60.2384 310° West  Level Estimated
Sun 05:51:00 AM 9.7689 -60.3296 310° West  Level Estimated
Sun 05:52:00 AM 9.8440 -60.4208 310° West  Level Estimated
Sun 05:53:00 AM 9.9191 -60.5121 310° West  Level Estimated
Sun 05:54:00 AM 9.9942 -60.6034 310° West  Level Estimated
Sun 05:55:00 AM 10.0692 -60.6947 310° West  Level Estimated
Sun 05:56:00 AM 10.1442 -60.7861 310° West  Level Estimated
Sun 05:57:00 AM 10.2192 -60.8776 310° West  Level Estimated
Sun 05:58:00 AM 10.2942 -60.9690 310° West  Level Estimated
Sun 05:59:00 AM 10.3692 -61.0606 310° West  Level Estimated
Sun 06:00:00 AM 10.4441 -61.1521 310° West  Level Estimated
Sun 06:01:00 AM 10.5190 -61.2437 310° West  Level Estimated
Sun 06:02:00 AM 10.5939 -61.3354 310° West  Level Estimated
Sun 06:03:00 AM 10.5954 -61.3372 310° West  Level Estimated
Sun 06:04:00 AM 10.5954 -61.3372 243° Southwest  Level Estimated
Sun 06:05:00 AM 10.5954 -61.3372 243° Southwest  Level Estimated
Sun 06:06:00 AM 10.5954 -61.3372 243° Southwest  Level Estimated
Sun 06:07:00 AM 10.5954 -61.3372 243° Southwest  Level Estimated
Sun 06:08:00 AM 10.5954 -61.3372 243° Southwest  Level Estimated
Sun 06:09:00 AM 10.5954 -61.3372 243° Southwest  Level Estimated
Sun 06:10:00 AM 10.5954 -61.3372 243° Southwest  Level Estimated
Sun 06:11:00 AM 10.5954 -61.3372 243° Southwest  Level Estimated
Sun 06:12:00 AM 10.5954 -61.3372 243° Southwest  Level Estimated
Sun 06:13:00 AM 10.5954 -61.3372 243° Southwest  Level Estimated
Sun 06:14:00 AM 10.5954 -61.3372 243° Southwest  Level Estimated
Sun 06:15:00 AM 10.5954 -61.3372 243° Southwest  Level Estimated
Sun 06:16:00 AM 10.5954 -61.3372 243° Southwest  Level Estimated
Sun 06:17:00 AM 10.5954 -61.3372 243° Southwest  Level Estimated
Sun 06:18:00 AM 10.5954 -61.3372 243° Southwest  Level Estimated

Login

Don't have an account? Register now (free) for customized features, flight alerts, and more!